createdAt,value
2018-08-24T00:00:23.832Z,17.43
2018-08-24T00:02:51.735Z,19.13
2018-08-24T00:05:20.037Z,17.00
2018-08-24T00:07:47.980Z,19.30
2018-08-24T00:10:15.914Z,16.50
2018-08-24T00:12:43.810Z,20.47
2018-08-24T00:15:11.732Z,22.50
2018-08-24T00:17:44.834Z,15.67
2018-08-24T00:20:12.768Z,20.97
2018-08-24T00:22:46.339Z,14.67
2018-08-24T00:25:14.968Z,15.20
2018-08-24T00:27:42.932Z,15.63
2018-08-24T00:30:12.193Z,13.47
2018-08-24T00:32:40.602Z,15.73
2018-08-24T00:35:08.556Z,15.07
2018-08-24T00:37:36.451Z,15.67
2018-08-24T00:40:04.475Z,15.23
2018-08-24T00:42:32.870Z,21.43
2018-08-24T00:45:00.818Z,15.03
2018-08-24T00:47:28.661Z,14.83
2018-08-24T00:49:57.048Z,15.17
2018-08-24T00:52:24.937Z,13.40
2018-08-24T00:54:53.523Z,17.93
2018-08-24T00:57:21.465Z,17.80
2018-08-24T00:59:49.598Z,16.00
2018-08-24T01:02:18.177Z,14.50
2018-08-24T01:04:46.097Z,18.57
2018-08-24T01:07:14.720Z,19.93
2018-08-24T01:09:43.401Z,20.13
2018-08-24T01:12:13.529Z,16.47
2018-08-24T01:14:44.670Z,15.13
2018-08-24T01:17:18.786Z,16.90
2018-08-24T01:19:47.778Z,15.13
2018-08-24T01:22:15.989Z,21.60
2018-08-24T01:24:43.945Z,23.07
2018-08-24T01:27:11.835Z,16.53
2018-08-24T01:29:41.596Z,17.03
2018-08-24T01:32:09.531Z,12.97
2018-08-24T01:34:37.951Z,14.60
2018-08-24T01:37:05.986Z,17.70
2018-08-24T01:39:34.093Z,18.83
2018-08-24T01:42:02.267Z,17.80
2018-08-24T01:44:30.423Z,16.00
2018-08-24T01:46:58.316Z,17.03
2018-08-24T01:49:26.989Z,20.17
2018-08-24T01:51:54.845Z,14.77
2018-08-24T01:54:23.050Z,23.00
2018-08-24T01:56:50.954Z,17.03
2018-08-24T01:59:18.791Z,14.93
2018-08-24T02:01:46.947Z,17.43
2018-08-24T02:04:15.793Z,18.63
2018-08-24T02:06:43.708Z,15.30
2018-08-24T02:09:12.817Z,17.97
2018-08-24T02:11:40.820Z,16.80
2018-08-24T02:14:15.627Z,17.00
2018-08-24T02:16:45.756Z,19.20
2018-08-24T02:19:16.536Z,17.00
2018-08-24T02:21:50.064Z,17.33
2018-08-24T02:24:18.644Z,15.80
2018-08-24T02:26:46.913Z,17.10
2018-08-24T02:29:15.501Z,17.23
2018-08-24T02:31:50.118Z,16.47
2018-08-24T02:34:17.999Z,16.80
2018-08-24T02:36:46.109Z,13.73
2018-08-24T02:39:15.244Z,16.03
2018-08-24T02:41:44.086Z,12.93
2018-08-24T02:44:12.268Z,18.03
2018-08-24T02:46:42.180Z,19.63
2018-08-24T02:49:11.124Z,20.40
2018-08-24T02:51:40.545Z,17.67
2018-08-24T02:54:09.079Z,24.53
2018-08-24T02:56:37.791Z,17.13
2018-08-24T02:59:06.472Z,18.40
2018-08-24T03:01:38.282Z,22.43
2018-08-24T03:04:08.999Z,16.20
2018-08-24T03:06:39.158Z,17.87
2018-08-24T03:09:10.900Z,16.30
2018-08-24T03:11:39.871Z,18.00
2018-08-24T03:14:11.343Z,21.83
2018-08-24T03:16:39.913Z,20.03
2018-08-24T03:19:10.036Z,15.63
2018-08-24T03:21:41.533Z,19.23
2018-08-24T03:24:10.901Z,16.93
2018-08-24T03:26:42.259Z,21.57
2018-08-24T03:29:11.512Z,17.93
2018-08-24T03:31:40.342Z,17.17
2018-08-24T03:34:09.831Z,18.93
2018-08-24T03:36:42.575Z,16.53
2018-08-24T03:39:11.812Z,19.13
2018-08-24T03:41:41.841Z,15.00
2018-08-24T03:44:12.803Z,16.33
2018-08-24T03:46:42.497Z,18.87
2018-08-24T03:49:11.263Z,18.53
2018-08-24T03:51:39.660Z,17.50
2018-08-24T03:54:14.298Z,18.50
2018-08-24T03:56:43.725Z,17.73
2018-08-24T03:59:12.936Z,17.40
2018-08-24T04:01:43.542Z,16.10
2018-08-24T04:04:11.570Z,14.67
2018-08-24T04:06:42.201Z,16.80
2018-08-24T04:09:12.624Z,16.13
2018-08-24T04:11:42.050Z,18.30
2018-08-24T04:14:11.960Z,21.63
2018-08-24T04:16:48.530Z,24.10
2018-08-24T04:19:33.400Z,18.40
2018-08-24T04:22:03.956Z,21.27
2018-08-24T04:24:40.341Z,19.63
2018-08-24T04:27:10.786Z,19.23
2018-08-24T04:29:41.140Z,19.43
2018-08-24T04:32:13.051Z,20.80
2018-08-24T04:34:42.642Z,17.30
2018-08-24T04:37:14.386Z,17.47
2018-08-24T04:39:44.791Z,25.63
2018-08-24T04:42:13.281Z,27.40
2018-08-24T04:44:45.522Z,18.40
2018-08-24T04:47:15.728Z,20.80
2018-08-24T04:49:45.350Z,20.80
2018-08-24T04:52:13.542Z,23.90
2018-08-24T04:54:43.060Z,22.20
2018-08-24T04:57:15.177Z,21.83
2018-08-24T04:59:46.297Z,19.97
2018-08-24T05:02:17.507Z,28.37
2018-08-24T05:04:46.668Z,25.30
2018-08-24T05:07:15.901Z,34.23
2018-08-24T05:09:46.204Z,24.13
2018-08-24T05:12:16.361Z,23.30
2018-08-24T05:14:48.281Z,20.97
2018-08-24T05:17:19.675Z,24.73
2018-08-24T05:19:49.462Z,22.40
2018-08-24T05:22:20.907Z,20.77
2018-08-24T05:24:49.895Z,21.07
2018-08-24T05:27:18.219Z,19.10
2018-08-24T05:29:48.900Z,25.63
2018-08-24T05:32:17.511Z,19.77
2018-08-24T05:34:47.291Z,21.60
2018-08-24T05:37:16.924Z,41.33
2018-08-24T05:39:47.751Z,20.60
2018-08-24T05:42:15.675Z,24.40
2018-08-24T05:44:43.568Z,21.37
2018-08-24T05:47:11.945Z,19.37
2018-08-24T05:49:39.841Z,24.53
2018-08-24T05:52:07.738Z,24.43
2018-08-24T05:54:35.636Z,25.43
2018-08-24T05:57:03.516Z,20.40
2018-08-24T05:59:31.462Z,23.93
2018-08-24T06:02:00.401Z,20.63
2018-08-24T06:04:29.428Z,19.43
2018-08-24T06:06:59.527Z,25.30
2018-08-24T06:09:27.884Z,23.13
2018-08-24T06:11:58.405Z,21.40
2018-08-24T06:14:27.390Z,24.30
2018-08-24T06:17:03.782Z,22.73
2018-08-24T06:19:34.064Z,25.00
2018-08-24T06:22:03.155Z,19.87
2018-08-24T06:24:33.482Z,22.47
2018-08-24T06:27:02.690Z,28.57
2018-08-24T06:29:32.628Z,26.40
2018-08-24T06:32:01.544Z,25.63
2018-08-24T06:34:29.786Z,21.63
2018-08-24T06:36:57.953Z,22.40
2018-08-24T06:39:25.892Z,26.07
2018-08-24T06:41:53.854Z,22.40
2018-08-24T06:44:21.785Z,25.17
2018-08-24T06:46:49.662Z,31.70
2018-08-24T06:49:17.545Z,29.57
2018-08-24T06:51:45.788Z,28.63
2018-08-24T06:54:13.707Z,23.57
2018-08-24T06:56:41.934Z,25.20
2018-08-24T06:59:10.885Z,25.30
2018-08-24T07:01:39.707Z,24.20
2018-08-24T07:04:07.622Z,23.47
2018-08-24T07:06:36.767Z,20.70
2018-08-24T07:09:06.183Z,26.20
2018-08-24T07:11:35.352Z,23.53
2018-08-24T07:14:03.663Z,22.57
2018-08-24T07:16:31.594Z,23.13
2018-08-24T07:19:00.761Z,25.43
2018-08-24T07:21:29.330Z,22.83
2018-08-24T07:23:58.277Z,28.23
2018-08-24T07:26:26.908Z,27.00
2018-08-24T07:28:55.669Z,24.80
2018-08-24T07:31:24.160Z,25.27
2018-08-24T07:33:52.195Z,22.23
2018-08-24T07:36:21.256Z,21.27
2018-08-24T07:38:49.897Z,30.73
2018-08-24T07:41:17.894Z,46.93
2018-08-24T07:43:45.807Z,40.17
2018-08-24T07:46:14.128Z,22.60
2018-08-24T07:48:42.127Z,24.77
2018-08-24T07:51:10.268Z,33.77
2018-08-24T07:53:38.803Z,30.97
2018-08-24T07:56:07.305Z,19.30
2018-08-24T07:58:35.381Z,21.87
2018-08-24T08:01:03.568Z,24.20
2018-08-24T08:03:31.486Z,21.53
2018-08-24T08:05:59.737Z,21.90
2018-08-24T08:08:27.721Z,19.30
2018-08-24T08:10:55.641Z,18.10
2018-08-24T08:13:23.561Z,23.40
2018-08-24T08:15:54.234Z,20.33
2018-08-24T08:18:23.401Z,21.60
2018-08-24T08:20:51.206Z,20.30
2018-08-24T08:23:20.006Z,17.33
2018-08-24T08:25:48.138Z,16.60
2018-08-24T08:28:16.539Z,12.90
2018-08-24T08:30:44.435Z,10.60
2018-08-24T08:33:12.371Z,15.50
2018-08-24T08:35:40.310Z,17.13
2018-08-24T08:38:08.257Z,13.93
2018-08-24T08:40:36.757Z,11.10
2018-08-24T08:43:04.742Z,13.93
2018-08-24T08:45:32.675Z,13.33
2018-08-24T08:48:01.247Z,10.80
2018-08-24T08:50:29.396Z,7.10
2018-08-24T08:52:57.318Z,7.90
2018-08-24T08:55:25.488Z,8.13
2018-08-24T08:57:53.485Z,7.83
2018-08-24T09:00:22.682Z,8.40
2018-08-24T09:02:52.123Z,6.30
2018-08-24T09:05:20.153Z,8.73
2018-08-24T09:07:48.044Z,9.90
2018-08-24T09:10:15.968Z,6.80
2018-08-24T09:12:43.923Z,8.63
2018-08-24T09:15:11.886Z,6.40
2018-08-24T09:17:47.755Z,7.60
2018-08-24T09:20:22.631Z,6.50
2018-08-24T09:22:56.236Z,7.60
2018-08-24T09:25:30.634Z,12.03
2018-08-24T09:28:04.486Z,9.93
2018-08-24T09:30:36.831Z,13.17
2018-08-24T09:33:05.152Z,9.80
2018-08-24T09:35:34.086Z,9.50
2018-08-24T09:38:02.022Z,10.10
2018-08-24T09:40:35.495Z,12.50
2018-08-24T09:43:09.193Z,9.50
2018-08-24T09:45:37.880Z,13.60
2018-08-24T09:49:15.459Z,12.40
2018-08-24T09:51:44.161Z,6.93
2018-08-24T09:54:12.068Z,8.73
2018-08-24T09:56:40.343Z,18.10
2018-08-24T09:59:09.053Z,9.90
2018-08-24T10:01:43.796Z,7.60
2018-08-24T10:04:17.536Z,8.90
2018-08-24T10:06:51.220Z,9.83
2018-08-24T10:09:19.760Z,9.33
2018-08-24T10:11:48.678Z,9.17
2018-08-24T10:14:17.119Z,14.73
2018-08-24T10:16:47.420Z,10.63
2018-08-24T10:19:15.677Z,11.23
2018-08-24T10:21:43.623Z,11.67
2018-08-24T10:24:11.743Z,13.87
2018-08-24T10:26:40.119Z,9.33
2018-08-24T10:29:08.455Z,8.77
2018-08-24T10:31:37.596Z,8.93
2018-08-24T10:34:05.775Z,8.37
2018-08-24T10:36:33.920Z,8.03
2018-08-24T10:39:02.219Z,8.70
2018-08-24T10:41:30.970Z,6.80
2018-08-24T10:43:58.849Z,5.63
2018-08-24T10:46:26.810Z,5.23
2018-08-24T10:48:54.732Z,6.20
2018-08-24T10:51:22.727Z,12.93
2018-08-24T10:53:50.643Z,5.53
2018-08-24T10:56:19.478Z,6.87
2018-08-24T10:58:47.392Z,10.13
2018-08-24T11:01:15.435Z,7.07
2018-08-24T11:03:43.611Z,9.07
2018-08-24T11:06:12.175Z,11.60
2018-08-24T11:08:40.711Z,6.50
2018-08-24T11:11:08.641Z,8.07
2018-08-24T11:13:36.540Z,8.50
2018-08-24T11:16:04.785Z,8.03
2018-08-24T11:18:32.815Z,6.10
2018-08-24T11:21:00.975Z,5.40
2018-08-24T11:23:29.127Z,6.60
2018-08-24T11:25:57.085Z,6.53
2018-08-24T11:28:25.378Z,7.47
2018-08-24T11:30:53.980Z,7.20
2018-08-24T11:33:21.939Z,11.80
2018-08-24T11:35:50.634Z,8.50
2018-08-24T11:38:18.584Z,11.77
2018-08-24T11:40:46.553Z,6.77
2018-08-24T11:43:14.534Z,6.20
2018-08-24T11:45:49.008Z,11.07
2018-08-24T11:48:16.894Z,9.43
2018-08-24T11:50:44.826Z,8.50
2018-08-24T11:53:13.087Z,10.23
2018-08-24T11:55:41.191Z,8.73
2018-08-24T11:58:09.427Z,9.70
2018-08-24T12:00:38.084Z,15.70
2018-08-24T12:03:06.297Z,6.80
2018-08-24T12:05:34.247Z,9.60
2018-08-24T12:08:02.318Z,9.10
2018-08-24T12:10:30.591Z,10.80
2018-08-24T12:12:59.071Z,6.30
2018-08-24T12:15:27.019Z,8.67
2018-08-24T12:17:55.591Z,7.47
2018-08-24T12:20:24.196Z,8.17
2018-08-24T12:22:52.764Z,8.87
2018-08-24T12:25:20.753Z,7.03
2018-08-24T12:27:48.653Z,8.07
2018-08-24T12:30:16.554Z,8.43
2018-08-24T12:32:44.494Z,12.00
2018-08-24T12:35:14.134Z,6.73
2018-08-24T12:37:43.486Z,3.60
2018-08-24T12:40:11.770Z,4.07
2018-08-24T12:42:39.830Z,5.67
2018-08-24T12:45:07.813Z,8.70
2018-08-24T12:47:36.487Z,27.57
2018-08-24T12:50:04.971Z,25.47
2018-08-24T12:52:33.707Z,17.77
2018-08-24T12:55:01.652Z,15.20
2018-08-24T12:57:30.620Z,21.13
2018-08-24T13:00:00.140Z,16.27
2018-08-24T13:02:28.255Z,19.50
2018-08-24T13:04:57.099Z,20.23
2018-08-24T13:07:25.612Z,22.33
2018-08-24T13:09:53.863Z,22.73
2018-08-24T13:12:21.756Z,13.43
2018-08-24T13:14:50.407Z,11.93
2018-08-24T13:17:18.917Z,17.90
2018-08-24T13:19:46.851Z,13.50
2018-08-24T13:22:14.785Z,8.67
2018-08-24T13:24:43.626Z,15.07
2018-08-24T13:27:11.544Z,10.23
2018-08-24T13:29:39.456Z,7.93
2018-08-24T13:32:07.427Z,14.10
2018-08-24T13:34:36.936Z,7.10
2018-08-24T13:37:05.559Z,11.53
2018-08-24T13:39:34.234Z,13.00
2018-08-24T13:42:03.405Z,11.00
2018-08-24T13:44:32.083Z,10.30
2018-08-24T13:47:00.008Z,7.87
2018-08-24T13:49:28.018Z,15.83
2018-08-24T13:51:56.637Z,11.20
2018-08-24T13:54:25.887Z,9.80
2018-08-24T13:56:53.856Z,12.70
2018-08-24T13:59:21.801Z,5.87
2018-08-24T14:01:49.830Z,7.70
2018-08-24T14:04:18.383Z,9.60
2018-08-24T14:06:48.073Z,13.93
2018-08-24T14:09:16.136Z,7.70
2018-08-24T14:11:44.574Z,7.83
2018-08-24T14:14:12.573Z,8.27
2018-08-24T14:16:40.514Z,9.53
2018-08-24T14:19:08.459Z,17.53
2018-08-24T14:21:36.793Z,9.20
2018-08-24T14:24:05.592Z,10.53
2018-08-24T14:26:33.674Z,7.93
2018-08-24T14:29:02.695Z,9.33
2018-08-24T14:31:31.523Z,21.00
2018-08-24T14:33:59.568Z,10.47
2018-08-24T14:36:28.605Z,4.83
2018-08-24T14:38:57.258Z,8.17
2018-08-24T14:41:25.143Z,9.80
2018-08-24T14:43:53.111Z,15.80
2018-08-24T14:46:21.233Z,7.80
2018-08-24T14:48:49.194Z,9.47
2018-08-24T14:51:17.368Z,6.47
2018-08-24T14:53:45.291Z,17.07
2018-08-24T14:56:13.240Z,6.47
2018-08-24T14:58:41.162Z,7.80
2018-08-24T15:01:09.110Z,6.93
2018-08-24T15:03:37.338Z,7.20
2018-08-24T15:06:05.312Z,9.60
2018-08-24T15:08:33.816Z,8.53
2018-08-24T15:11:02.081Z,11.93
2018-08-24T15:13:32.091Z,8.73
2018-08-24T15:16:00.059Z,6.60
2018-08-24T15:18:28.004Z,10.20
2018-08-24T15:20:55.931Z,5.80
2018-08-24T15:23:24.348Z,11.40
2018-08-24T15:25:53.607Z,8.60
2018-08-24T15:28:21.940Z,6.60
2018-08-24T15:30:50.212Z,8.73
2018-08-24T15:33:18.114Z,7.10
2018-08-24T15:35:46.059Z,10.97
2018-08-24T15:38:14.660Z,11.47
2018-08-24T15:40:43.190Z,5.90
2018-08-24T15:43:11.759Z,6.50
2018-08-24T15:45:39.875Z,8.33
2018-08-24T15:48:08.550Z,11.80
2018-08-24T15:50:37.392Z,8.30
2018-08-24T15:53:05.599Z,10.00
2018-08-24T15:55:34.044Z,11.70
2018-08-24T15:58:02.492Z,8.33
2018-08-24T16:00:30.470Z,8.83
2018-08-24T16:02:58.389Z,10.73
2018-08-24T16:05:27.544Z,11.00
2018-08-24T16:07:55.463Z,10.27
2018-08-24T16:10:24.061Z,12.97
2018-08-24T16:12:52.576Z,14.43
2018-08-24T16:15:21.247Z,10.07
2018-08-24T16:17:55.214Z,11.63
2018-08-24T16:20:23.437Z,17.27
2018-08-24T16:22:51.384Z,11.23
2018-08-24T16:25:20.079Z,10.60
2018-08-24T16:27:48.852Z,12.27
2018-08-24T16:30:17.268Z,7.93
2018-08-24T16:32:45.294Z,7.80
2018-08-24T16:35:13.101Z,8.80
2018-08-24T16:37:41.110Z,16.83
2018-08-24T16:40:09.263Z,13.83
2018-08-24T16:42:37.931Z,8.60
2018-08-24T16:45:06.568Z,13.40
2018-08-24T16:47:35.067Z,12.37
2018-08-24T16:50:03.017Z,8.90
2018-08-24T16:52:31.767Z,10.83
2018-08-24T16:54:59.655Z,11.50
2018-08-24T16:57:27.767Z,8.30
2018-08-24T16:59:55.682Z,7.10
2018-08-24T17:02:23.607Z,8.30
2018-08-24T17:04:52.680Z,7.83
2018-08-24T17:07:20.681Z,9.17
2018-08-24T17:09:48.922Z,8.70
2018-08-24T17:12:17.798Z,8.10
2018-08-24T17:14:46.038Z,12.60
2018-08-24T17:17:14.033Z,12.93
2018-08-24T17:19:41.966Z,12.00
2018-08-24T17:22:10.605Z,8.60
2018-08-24T17:24:39.532Z,10.43
2018-08-24T17:27:08.349Z,8.97
2018-08-24T17:29:36.380Z,8.27
2018-08-24T17:32:04.595Z,7.90
2018-08-24T17:34:33.964Z,12.70
2018-08-24T17:37:02.521Z,8.00
2018-08-24T17:39:30.433Z,10.33
2018-08-24T17:41:58.958Z,10.90
2018-08-24T17:44:26.880Z,8.17
2018-08-24T17:46:55.157Z,7.87
2018-08-24T17:49:23.191Z,13.03
2018-08-24T17:51:52.074Z,7.63
2018-08-24T17:54:20.054Z,7.10
2018-08-24T17:56:47.938Z,7.50
2018-08-24T17:59:15.824Z,9.97
2018-08-24T18:01:43.732Z,7.03
2018-08-24T18:04:11.668Z,8.53
2018-08-24T18:06:39.595Z,8.27
2018-08-24T18:09:09.210Z,9.10
2018-08-24T18:11:37.527Z,7.40
2018-08-24T18:14:05.689Z,10.30
2018-08-24T18:16:33.968Z,11.40
2018-08-24T18:19:01.927Z,8.17
2018-08-24T18:21:29.856Z,6.80
2018-08-24T18:23:57.966Z,7.40
2018-08-24T18:26:25.847Z,7.63
2018-08-24T18:28:54.065Z,7.33
2018-08-24T18:31:22.284Z,7.57
2018-08-24T18:33:51.612Z,7.60
2018-08-24T18:36:19.780Z,8.50
2018-08-24T18:38:47.691Z,8.80
2018-08-24T18:41:15.649Z,8.20
2018-08-24T18:43:43.573Z,8.70
2018-08-24T18:46:12.262Z,13.63
2018-08-24T18:48:40.278Z,15.20
2018-08-24T18:51:08.188Z,12.17
2018-08-24T18:53:36.101Z,12.90
2018-08-24T18:56:05.117Z,8.30
2018-08-24T18:58:33.055Z,10.80
2018-08-24T19:01:02.309Z,8.17
2018-08-24T19:03:31.232Z,10.00
2018-08-24T19:05:59.185Z,13.13
2018-08-24T19:08:27.122Z,10.40
2018-08-24T19:11:00.987Z,14.37
2018-08-24T19:13:29.682Z,14.80
2018-08-24T19:15:57.566Z,18.30
2018-08-24T19:18:31.511Z,11.77
2018-08-24T19:21:06.076Z,7.97
2018-08-24T19:23:34.090Z,19.73
2018-08-24T19:26:04.408Z,13.57
2018-08-24T19:28:38.213Z,8.53
2018-08-24T19:31:06.200Z,18.53
2018-08-24T19:33:34.130Z,12.00
2018-08-24T19:36:02.757Z,15.93
2018-08-24T19:38:31.272Z,10.30
2018-08-24T19:41:06.527Z,10.50
2018-08-24T19:43:35.064Z,15.33
2018-08-24T19:46:02.969Z,10.30
2018-08-24T19:48:36.576Z,10.90
2018-08-24T19:51:04.860Z,17.27
2018-08-24T19:53:33.539Z,10.07
2018-08-24T19:56:02.001Z,7.10
2018-08-24T19:58:35.652Z,17.83
2018-08-24T20:01:03.663Z,14.30
2018-08-24T20:03:31.969Z,28.73
2018-08-24T20:06:05.492Z,16.97
2018-08-24T20:08:40.022Z,11.00
2018-08-24T20:11:08.683Z,9.07
2018-08-24T20:13:37.286Z,9.73
2018-08-24T20:16:10.828Z,12.47
2018-08-24T20:18:38.800Z,9.27
2018-08-24T20:21:07.258Z,13.37
2018-08-24T20:23:35.314Z,11.37
2018-08-24T20:26:03.272Z,15.70
2018-08-24T20:28:31.210Z,10.40
2018-08-24T20:30:59.154Z,14.07
2018-08-24T20:33:27.155Z,11.80
2018-08-24T20:35:55.904Z,14.70
2018-08-24T20:38:24.545Z,8.87
2018-08-24T20:40:52.668Z,9.90
2018-08-24T20:43:20.572Z,14.60
2018-08-24T20:45:48.499Z,10.90
2018-08-24T20:48:16.410Z,11.50
2018-08-24T20:50:44.539Z,14.17
2018-08-24T20:53:12.716Z,13.63
2018-08-24T20:55:40.742Z,23.07
2018-08-24T20:58:09.216Z,15.50
2018-08-24T21:00:37.120Z,14.00
2018-08-24T21:03:05.323Z,12.87
2018-08-24T21:05:33.186Z,13.10
2018-08-24T21:08:01.066Z,11.80
2018-08-24T21:10:29.012Z,12.77
2018-08-24T21:12:57.575Z,10.30
2018-08-24T21:15:25.896Z,13.00
2018-08-24T21:17:54.495Z,13.50
2018-08-24T21:20:23.673Z,13.13
2018-08-24T21:22:51.576Z,14.27
2018-08-24T21:25:19.489Z,12.60
2018-08-24T21:27:48.060Z,13.97
2018-08-24T21:30:15.991Z,13.47
2018-08-24T21:32:44.006Z,10.90
2018-08-24T21:35:11.929Z,13.07
2018-08-24T21:37:40.428Z,13.97
2018-08-24T21:40:09.347Z,16.50
2018-08-24T21:42:37.264Z,13.10
2018-08-24T21:45:05.589Z,17.60
2018-08-24T21:47:33.516Z,14.73
2018-08-24T21:50:01.644Z,20.73
2018-08-24T21:52:30.717Z,10.93
2018-08-24T21:54:59.912Z,16.83
2018-08-24T21:57:27.824Z,11.20
2018-08-24T21:59:55.749Z,13.03
2018-08-24T22:02:23.860Z,15.77
2018-08-24T22:04:53.643Z,14.87
2018-08-24T22:07:21.810Z,12.90
2018-08-24T22:09:50.238Z,15.17
2018-08-24T22:12:18.153Z,11.53
2018-08-24T22:14:46.192Z,14.50
2018-08-24T22:17:14.081Z,12.13
2018-08-24T22:19:41.997Z,16.63
2018-08-24T22:22:10.050Z,14.83
2018-08-24T22:24:37.980Z,18.20
2018-08-24T22:27:05.923Z,15.23
2018-08-24T22:29:33.808Z,15.13
2018-08-24T22:32:02.364Z,19.83
2018-08-24T22:34:30.913Z,19.97
2018-08-24T22:36:58.840Z,14.47
2018-08-24T22:39:26.763Z,14.93
2018-08-24T22:41:55.865Z,12.37
2018-08-24T22:44:24.443Z,21.20
2018-08-24T22:46:53.142Z,14.80
2018-08-24T22:49:21.747Z,17.83
2018-08-24T22:51:49.654Z,11.50
2018-08-24T22:54:17.537Z,13.10
2018-08-24T22:56:45.498Z,11.10
2018-08-24T22:59:14.049Z,16.43
2018-08-24T23:01:42.430Z,13.57
2018-08-24T23:04:10.305Z,15.13
2018-08-24T23:06:38.657Z,17.60
2018-08-24T23:09:09.364Z,13.40
2018-08-24T23:11:37.212Z,14.33
2018-08-24T23:14:05.372Z,16.10
2018-08-24T23:16:33.281Z,15.63
2018-08-24T23:19:01.150Z,21.33
2018-08-24T23:21:29.039Z,17.03
2018-08-24T23:23:57.620Z,16.40
2018-08-24T23:26:26.512Z,21.43
2018-08-24T23:28:55.515Z,17.53
2018-08-24T23:31:24.225Z,19.43
2018-08-24T23:33:52.103Z,19.77
2018-08-24T23:36:20.100Z,14.63
2018-08-24T23:38:48.611Z,19.00
2018-08-24T23:41:17.040Z,17.23
2018-08-24T23:43:44.937Z,17.53
2018-08-24T23:46:13.512Z,17.00
2018-08-24T23:48:41.426Z,15.97
2018-08-24T23:51:09.331Z,15.47
2018-08-24T23:53:37.224Z,19.10
2018-08-24T23:56:05.891Z,16.63
2018-08-24T23:58:33.831Z,19.10
